• Join FlightAware (Why Join?)
  • Login
  • US Flag 
11:43PM EDT


 

Airport Tracker/Info


-or-


 

Live Flight TrackerFlight Track Log ✈ SWA1718 ✈ 26-Apr-2013 ✈ KMDW - KBUF

Flight Track Log - Related Links

Times and Time Zones

All times are in EDT time to prevent confusion due to time zone crossing. See the SWA1718 flight status page for this flight to view local times or setup timezone preferences in your user account.

Time Position Orientation Groundspeed Altitude Reporting Facility
EDT Latitude Longitude Course Direction KTS MPH feet Rate Location/Type
10:03PM 41.7833 -87.8000 37° Northeast 200 230 2,600  Level Chicago TRACON
10:04PM 41.8333 -87.7500 37° Northeast 251 289 3,300 1,860 Climbing Chicago TRACON
10:05PM 41.8333 -87.6667 90° East 225 259 6,400 2,880 Climbing Chicago TRACON
10:06PM 41.8167 -87.5667 103° East 257 296 9,100 2,460 Climbing Chicago TRACON
10:07PM 41.7931 -87.4661 107° East 289 333 11,800 2,460 Climbing Chicago Center
10:08PM 41.7783 -87.3581 100° East 297 342 14,500 2,580 Climbing Chicago Center
10:09PM 41.7703 -87.2136 94° East 325 374 17,100 1,980 Climbing Chicago Center
10:10PM 41.7675 -87.0856 92° East 351 404 18,600 1,260 Climbing Chicago Center
10:11PM 41.7839 -86.9428 81° East 388 447 19,700 1,260 Climbing Chicago Center
10:12PM 41.8006 -86.7847 82° East 427 491 21,200 1,560 Climbing Chicago Center
10:13PM 41.8172 -86.6222 82° East 443 510 23,000 1,740 Climbing Chicago Center
10:14PM 41.8333 -86.4569 82° East 452 520 24,800 1,560 Climbing Chicago Center
10:15PM 41.8508 -86.2864 82° East 459 528 26,300 1,380 Climbing Chicago Center
10:16PM 41.8683 -86.1108 82° East 469 540 27,700 1,320 Climbing Chicago Center
10:17PM 41.8856 -85.9308 83° East 480 552 29,000 1,260 Climbing Chicago Center
10:18PM 41.9064 -85.7158 83° East 481 554 30,400 1,020 Climbing Chicago Center
10:19PM 41.9244 -85.5264 83° East 501 577 31,100 660 Climbing Chicago Center
10:20PM 41.9450 -85.3325 82° East 499 574 31,800 900 Climbing Cleveland Center
10:21PM 41.9528 -85.1378 87° East 509 586 33,000 1,020 Climbing Cleveland Center
10:22PM 41.9550 -84.9256 89° East 521 600 33,900 960 Climbing Cleveland Center
10:23PM 41.9703 -84.7308 84° East 516 594 35,000 540 Climbing Cleveland Center
10:24PM 41.9897 -84.5394 82° East 516 594 35,000  Level Cleveland Center
10:25PM 42.0167 -84.3536 79° East 516 594 35,000  Level Cleveland Center
10:26PM 42.0325 -84.1869 83° East 510 587 35,000  Level Cleveland Center
10:27PM 42.0528 -84.0033 81° East 499 574 35,000  Level Cleveland Center
10:28PM 42.0756 -83.7975 81° East 499 574 35,000  Level Cleveland Center
10:29PM 42.0950 -83.6167 82° East 499 574 35,000  Level Cleveland Center
10:30PM 42.1164 -83.4300 81° East 504 580 35,000  Level Cleveland Center
10:31PM 42.1375 -83.2433 81° East 499 574 35,000  Level Cleveland Center
10:32PM 42.1542 -83.0619 83° East 499 574 35,000  Level Cleveland Center
10:33PM 42.1767 -82.8750 81° East 499 574 35,000  Level Cleveland Center
10:34PM 42.1947 -82.6936 82° East 499 574 35,000  Level Cleveland Center
10:35PM 42.2128 -82.5092 82° East 494 568 35,000  Level Cleveland Center
10:36PM 42.2303 -82.3275 83° East 494 568 35,000  Level Cleveland Center
10:37PM 42.2494 -82.1428 82° East 494 568 35,000  Level Cleveland Center
10:38PM 42.2664 -81.9581 83° East 500 575 35,000  Level Cleveland Center
10:39PM 42.2853 -81.7758 82° East 495 570 35,000 -60 Level Cleveland Center
10:40PM 42.3036 -81.5911 82° East 495 570 34,900 -1,680 Descending Cleveland Center
10:41PM 42.3197 -81.4031 83° East 503 579 31,700 -3,000 Descending Cleveland Center
10:42PM 42.3356 -81.2208 83° East 497 572 29,000 -2,400 Descending Cleveland Center
10:43PM 42.3508 -81.0439 83° East 485 558 27,000 -1,020 Descending Cleveland Center
10:44PM 42.3639 -80.8753 84° East 460 529 27,000  Level Cleveland Center
10:45PM 42.3789 -80.7208 82° East 460 529 27,000  Level Cleveland Center
10:46PM 42.3914 -80.5467 84° East 460 529 27,000  Level Cleveland Center
10:47PM 42.4058 -80.3778 83° East 461 531 27,000 -720 Level Cleveland Center
10:48PM 42.4219 -80.2033 83° East 461 531 25,600 -2,100 Descending Cleveland Center
10:49PM 42.4339 -80.0261 85° East 461 531 22,800 -2,700 Descending Cleveland Center
10:50PM 42.4475 -79.8656 83° East 455 524 20,300 -2,460 Descending Cleveland Center
10:51PM 42.4569 -79.7081 85° East 435 501 17,900 -2,220 Descending Cleveland Center
10:52PM 42.4744 -79.5586 81° East 416 479 15,900 -1,800 Descending Cleveland Center
10:53PM 42.5422 -79.4561 48° Northeast 360 414 14,400 -1,860 Descending Cleveland Center
10:54PM 42.6122 -79.3672 43° Northeast 340 391 12,200 -1,980 Descending Cleveland Center
10:55PM 42.6758 -79.2842 44° Northeast 330 380 10,500 -1,440 Descending Cleveland Center
10:56PM 42.7314 -79.2067 46° Northeast 304 350 9,400 -1,500 Descending Cleveland Center
10:57PM 42.7908 -79.1289 44° Northeast 269 310 7,500 -1,740 Descending Cleveland Center
10:58PM 42.8442 -79.0597 44° Northeast 262 302 6,000 -1,740 Descending Cleveland Center
10:59PM 42.9036 -78.9903 41° Northeast 267 307 4,100 -1,020 Descending Cleveland Center
11:00PM 42.9569 -78.9294 40° Northeast 273 314 4,000 -60 Descending Cleveland Center
11:01PM 43.0167 -78.8667 38° Northeast 240 276 4,000  Level Buffalo TRACON
11:02PM 43.0667 -78.8000 44° Northeast 223 257 4,100 -360 Climbing Buffalo TRACON
11:03PM 43.0500 -78.7500 115° Southeast 195 224 3,400 -900 Descending Buffalo TRACON
11:04PM 43.0167 -78.6833 124° Southeast 160 184 2,500 -900 Descending Buffalo TRACON
11:05PM 42.9833 -78.6667 160° South 139 160 1,700 -840 Descending Buffalo TRACON